Airfield :
LOGIN :

Register | Disclaimer

   EN    FR    IT 

 










Legend :    VFR   Marginal VFR   IFR   Intensive IFR   Very Intensive IFR
Visi :
Ceiling :
>= 8 km
>= 3000ft
5 to 8 km
1000 to 3000 ft
1500m to 5 km
500 to 1000 ft
800 to 1500m
200 to 500 ft
< 800m
< 200 ft
Symbols :   Thunderstorms  Fog  Heavy snow  Heavy precipitations  Wind > 20 kt
SIGMETs :     Misc.  Thunderstorms  Icing  Turbulence  Mountain Waves  Volcanic Ashes







- Airport Elevation : 1367 ft
- IATA code : FDH


EDNY - Friedrichshafen

CURRENT METAR :
  • 250820Z 24006KT CAVOK 18/10 Q1015

EXPIRED METARs :
  • 250750Z 24003KT 200V270 CAVOK 18/11 Q1015
  • 250720Z 17003KT 110V220 CAVOK 17/11 Q1015
  • 250650Z VRB01KT 9999 FEW064 14/11 Q1015
  • 250620Z 07002KT 9999 BKN065 12/11 Q1015
  • 250550Z 00000KT 9999 FEW063 SCT075 11/10 Q1015

TAF TAF EDNY
Valid from the 25 at 06:00 until the 26 at 06:00 UTC


250500Z 2506/2606 22005KT CAVOK
BECMG 2507/2510 25015G25KT
TEMPO 2510/2517 28020G35KT
BECMG 2518/2521 24005KT
PROB30
TEMPO 2600/2606 RA BKN014
No reported NOTAMs for that airfield.



MET'MAP, your aeronautical weather chart ! - Copyright ORBIFLY December 2007 - Disclaimer

ORBIFLY MET'MAP TEAM :

Programming & Development : Alexandra Zaïnal
Concept & Development : Baudouin d'Aumeries
Co-Development & Prog : Marc-Olivier Méhu
Technical & hardware support : Manuel Goepfert

Contact : metmap@orbifly.com




SOURCES & CREDITS :

   NOAA